createdAt,value
2023-05-25T00:01:03.000Z,100773.25
2023-05-25T00:03:31.989Z,100766.25
2023-05-25T00:06:01.672Z,100760.22
2023-05-25T00:08:29.713Z,100764.56
2023-05-25T00:10:56.637Z,100759.28
2023-05-25T00:13:23.281Z,100770.78
2023-05-25T00:15:50.234Z,100771.69
2023-05-25T00:18:16.965Z,100767.34
2023-05-25T00:20:44.687Z,100773.50
2023-05-25T00:23:11.485Z,100764.78
2023-05-25T00:25:38.185Z,100765.66
2023-05-25T00:28:05.002Z,100766.50
2023-05-25T00:30:31.707Z,100762.94
2023-05-25T00:32:59.878Z,100760.22
2023-05-25T00:35:26.426Z,100766.34
2023-05-25T00:37:53.038Z,100769.91
2023-05-25T00:40:19.886Z,100775.28
2023-05-25T00:42:47.400Z,100771.88
2023-05-25T00:45:13.996Z,100774.66
2023-05-25T00:47:41.652Z,100770.38
2023-05-25T00:50:09.697Z,100768.75
2023-05-25T00:52:36.813Z,100767.06
2023-05-25T00:55:04.206Z,100763.63
2023-05-25T00:57:34.274Z,100755.84
2023-05-25T01:00:05.059Z,100766.41
2023-05-25T01:02:33.584Z,100760.28
2023-05-25T01:05:02.657Z,100756.78
2023-05-25T01:07:31.216Z,100756.00
2023-05-25T01:10:02.315Z,100761.44
2023-05-25T01:12:30.418Z,100761.50
2023-05-25T01:14:58.187Z,100753.72
2023-05-25T01:17:25.529Z,100767.94
2023-05-25T01:20:08.807Z,100760.19
2023-05-25T01:22:57.812Z,100760.47
2023-05-25T01:25:36.702Z,100758.78
2023-05-25T01:28:11.316Z,100762.34
2023-05-25T01:30:42.348Z,100759.78
2023-05-25T01:33:11.046Z,100755.50
2023-05-25T01:35:39.483Z,100762.63
2023-05-25T01:38:07.070Z,100763.56
2023-05-25T01:40:33.752Z,100771.50
2023-05-25T01:43:00.496Z,100762.00
2023-05-25T01:45:28.215Z,100762.94
2023-05-25T01:48:09.418Z,100775.53
2023-05-25T01:50:45.176Z,100776.34
2023-05-25T01:53:34.459Z,100772.22
2023-05-25T01:56:08.836Z,100778.31
2023-05-25T01:58:40.929Z,100774.97
2023-05-25T02:01:09.413Z,100776.81
2023-05-25T02:03:41.722Z,100770.81
2023-05-25T02:06:08.722Z,100775.25
2023-05-25T02:08:35.607Z,100779.81
2023-05-25T02:11:03.647Z,100786.16
2023-05-25T02:13:30.317Z,100787.09
2023-05-25T02:15:56.968Z,100792.50
2023-05-25T02:18:23.806Z,100792.50
2023-05-25T02:20:50.407Z,100783.75
2023-05-25T02:23:18.968Z,100788.16
2023-05-25T02:25:46.563Z,100789.03
2023-05-25T02:28:14.414Z,100782.94
2023-05-25T02:30:41.061Z,100783.72
2023-05-25T02:33:07.722Z,100779.31
2023-05-25T02:38:02.573Z,100788.75
2023-05-25T02:40:29.188Z,100779.81
2023-05-25T02:42:55.895Z,100786.66
2023-05-25T02:45:22.490Z,100784.66
2023-05-25T02:47:49.222Z,100781.88
2023-05-25T02:50:15.769Z,100785.22
2023-05-25T02:52:42.521Z,100786.72
2023-05-25T02:55:13.618Z,100783.94
2023-05-25T02:57:41.037Z,100785.47
2023-05-25T03:00:08.024Z,100798.53
2023-05-25T03:02:35.104Z,100793.97
2023-05-25T03:05:04.094Z,100792.88
2023-05-25T03:07:31.734Z,100787.44
2023-05-25T03:09:59.404Z,100786.44
2023-05-25T03:12:26.028Z,100788.00
2023-05-25T03:14:52.516Z,100788.78
2023-05-25T03:17:19.203Z,100797.41
2023-05-25T03:19:46.060Z,100793.75
2023-05-25T03:22:12.687Z,100794.56
2023-05-25T03:24:41.832Z,100794.38
2023-05-25T03:27:08.880Z,100803.09
2023-05-25T03:29:35.570Z,100800.22
2023-05-25T03:32:02.282Z,100797.50
2023-05-25T03:34:29.819Z,100800.94
2023-05-25T03:36:56.561Z,100805.22
2023-05-25T03:39:23.254Z,100814.84
2023-05-25T03:41:49.992Z,100815.63
2023-05-25T03:44:16.766Z,100813.75
2023-05-25T03:46:43.653Z,100814.44
2023-05-25T03:49:13.854Z,100820.47
2023-05-25T03:51:44.426Z,100817.63
2023-05-25T03:54:12.177Z,100813.97
2023-05-25T03:56:38.739Z,100817.41
2023-05-25T03:59:05.274Z,100821.69
2023-05-25T04:01:31.786Z,100818.09
2023-05-25T04:03:58.538Z,100815.38
2023-05-25T04:06:30.083Z,100820.53
2023-05-25T04:08:57.947Z,100826.50
2023-05-25T04:11:25.627Z,100811.50
2023-05-25T04:13:52.080Z,100818.44
2023-05-25T04:16:18.904Z,100821.84
2023-05-25T04:18:45.551Z,100805.88
2023-05-25T04:21:12.072Z,100815.44
2023-05-25T04:23:38.615Z,100816.16
2023-05-25T04:26:13.370Z,100819.56
2023-05-25T04:28:43.156Z,100816.78
2023-05-25T04:31:09.889Z,100822.84
2023-05-25T04:33:38.946Z,100820.13
2023-05-25T04:36:06.441Z,100819.16
2023-05-25T04:38:33.360Z,100829.63
2023-05-25T04:41:02.020Z,100826.84
2023-05-25T04:43:29.996Z,100827.59
2023-05-25T04:45:57.702Z,100832.66
2023-05-25T04:48:24.741Z,100833.34
2023-05-25T04:50:53.008Z,100839.34
2023-05-25T04:53:20.442Z,100835.69
2023-05-25T04:55:47.167Z,100841.56
2023-05-25T04:58:14.760Z,100844.91
2023-05-25T05:00:42.051Z,100847.31
2023-05-25T05:03:08.989Z,100843.56
2023-05-25T05:05:36.848Z,100849.47
2023-05-25T05:08:03.774Z,100851.03
2023-05-25T05:10:30.415Z,100849.06
2023-05-25T05:12:57.051Z,100856.84
2023-05-25T05:15:23.666Z,100868.09
2023-05-25T05:17:50.255Z,100872.38
2023-05-25T05:20:16.927Z,100866.94
2023-05-25T05:22:43.793Z,100866.78
2023-05-25T05:25:10.519Z,100870.16
2023-05-25T05:27:37.137Z,100868.31
2023-05-25T05:30:04.105Z,100869.84
2023-05-25T05:32:30.776Z,100864.38
2023-05-25T05:34:57.421Z,100867.72
2023-05-25T05:37:23.979Z,100879.00
2023-05-25T05:39:52.638Z,100882.25
2023-05-25T05:42:19.296Z,100882.00
2023-05-25T05:44:45.892Z,100893.19
2023-05-25T05:47:12.390Z,100897.31
2023-05-25T05:49:39.509Z,100901.50
2023-05-25T05:52:06.806Z,100900.47
2023-05-25T05:54:33.414Z,100901.22
2023-05-25T05:56:59.927Z,100909.09
2023-05-25T05:59:26.601Z,100907.31
2023-05-25T06:01:53.226Z,100907.31
2023-05-25T06:04:19.856Z,100913.44
2023-05-25T06:06:47.043Z,100907.31
2023-05-25T06:09:13.849Z,100907.31
2023-05-25T06:11:40.683Z,100917.81
2023-05-25T06:14:07.235Z,100911.66
2023-05-25T06:16:33.959Z,100915.16
2023-05-25T06:19:01.222Z,100916.00
2023-05-25T06:21:27.853Z,100920.38
2023-05-25T06:23:55.217Z,100916.78
2023-05-25T06:26:22.106Z,100914.97
2023-05-25T06:28:50.067Z,100924.59
2023-05-25T06:31:16.764Z,100921.69
2023-05-25T06:33:43.292Z,100932.97
2023-05-25T06:36:11.027Z,100931.75
2023-05-25T06:38:37.622Z,100936.75
2023-05-25T06:41:05.547Z,100934.69
2023-05-25T06:43:32.349Z,100937.91
2023-05-25T06:45:59.539Z,100934.06
2023-05-25T06:48:26.533Z,100935.53
2023-05-25T06:50:53.110Z,100933.44
2023-05-25T06:53:19.759Z,100937.63
2023-05-25T06:55:46.441Z,100932.91
2023-05-25T06:58:14.883Z,100942.41
2023-05-25T07:00:41.613Z,100946.50
2023-05-25T07:03:08.259Z,100941.78
2023-05-25T07:05:34.842Z,100940.56
2023-05-25T07:08:01.417Z,100938.56
2023-05-25T07:10:28.045Z,100941.88
2023-05-25T07:12:54.608Z,100957.56
2023-05-25T07:15:22.775Z,100956.50
2023-05-25T07:17:50.147Z,100961.66
2023-05-25T07:20:16.858Z,100961.75
2023-05-25T07:22:43.788Z,100959.16
2023-05-25T07:25:10.520Z,100973.41
2023-05-25T07:27:37.196Z,100962.78
2023-05-25T07:30:04.736Z,100956.34
2023-05-25T07:32:31.344Z,100958.63
2023-05-25T07:34:58.037Z,100969.63
2023-05-25T07:37:24.872Z,100970.03
2023-05-25T07:39:51.603Z,100973.97
2023-05-25T07:42:21.806Z,100977.13
2023-05-25T07:44:49.122Z,100982.13
2023-05-25T07:47:15.986Z,100979.38
2023-05-25T07:49:42.634Z,100984.69
2023-05-25T07:52:09.283Z,100979.47
2023-05-25T07:54:40.091Z,100990.19
2023-05-25T07:57:07.819Z,100993.88
2023-05-25T07:59:34.603Z,100988.88
2023-05-25T08:02:01.247Z,100993.31
2023-05-25T08:04:28.049Z,101002.16
2023-05-25T08:06:54.684Z,101002.16
2023-05-25T08:09:21.504Z,100999.50
2023-05-25T08:11:47.977Z,101010.13
2023-05-25T08:14:14.609Z,101001.19
2023-05-25T08:16:41.555Z,101002.72
2023-05-25T08:19:08.167Z,101004.25
2023-05-25T08:21:35.219Z,101006.53
2023-05-25T08:24:04.283Z,101007.09
2023-05-25T08:26:45.378Z,101004.06
2023-05-25T08:29:18.508Z,101004.06
2023-05-25T08:31:49.479Z,101005.00
2023-05-25T08:34:16.904Z,101003.19
2023-05-25T08:39:35.896Z,101009.34
2023-05-25T08:42:03.892Z,101006.94
2023-05-25T08:44:30.565Z,101011.88
2023-05-25T08:46:58.138Z,101006.34
2023-05-25T08:49:26.522Z,101009.78
2023-05-25T08:51:55.417Z,101019.47
2023-05-25T08:54:30.239Z,101019.56
2023-05-25T08:57:03.517Z,101012.44
2023-05-25T08:59:42.234Z,101013.50
2023-05-25T09:02:32.372Z,101020.50
2023-05-25T09:05:01.732Z,101019.56
2023-05-25T09:07:29.618Z,101022.97
2023-05-25T09:09:57.809Z,101026.38
2023-05-25T09:12:24.487Z,101019.81
2023-05-25T09:14:53.560Z,101021.31
2023-05-25T09:17:21.202Z,101028.06
2023-05-25T09:19:47.993Z,101026.91
2023-05-25T09:22:16.553Z,101030.31
2023-05-25T09:24:44.833Z,101024.88
2023-05-25T09:27:13.425Z,101031.06
2023-05-25T09:29:40.072Z,101030.09
2023-05-25T09:32:07.193Z,101039.06
2023-05-25T09:34:34.154Z,101031.06
2023-05-25T09:37:03.900Z,101038.09
2023-05-25T09:39:30.999Z,101046.81
2023-05-25T09:41:59.285Z,101038.63
2023-05-25T09:44:27.006Z,101039.41
2023-05-25T09:46:53.691Z,101038.25
2023-05-25T09:49:21.303Z,101038.03
2023-05-25T09:51:48.502Z,101036.03
2023-05-25T09:54:15.728Z,101041.91
2023-05-25T09:56:42.598Z,101045.84
2023-05-25T09:59:09.356Z,101041.91
2023-05-25T10:01:36.784Z,101045.78
2023-05-25T10:04:04.733Z,101048.47
2023-05-25T10:06:35.116Z,101045.84
2023-05-25T10:09:03.419Z,101043.16
2023-05-25T10:11:31.498Z,101046.47
2023-05-25T10:14:03.835Z,101043.56
2023-05-25T10:16:33.480Z,101043.22
2023-05-25T10:19:22.032Z,101046.59
2023-05-25T10:21:59.686Z,101048.91
2023-05-25T10:24:39.194Z,101047.28
2023-05-25T10:27:22.423Z,101043.94
2023-05-25T10:29:57.283Z,101041.34
2023-05-25T10:32:24.797Z,101045.00
2023-05-25T10:34:52.459Z,101036.19
2023-05-25T10:37:19.292Z,101036.72
2023-05-25T10:39:46.343Z,101039.81
2023-05-25T10:42:13.329Z,101033.78
2023-05-25T10:44:43.485Z,101042.09
2023-05-25T10:47:10.792Z,101046.22
2023-05-25T10:49:55.525Z,101050.22
2023-05-25T10:52:26.565Z,101048.50
2023-05-25T10:54:56.594Z,101046.47
2023-05-25T10:57:24.208Z,101044.28
2023-05-25T10:59:52.177Z,101045.75
2023-05-25T11:02:24.897Z,101037.31
2023-05-25T11:05:30.875Z,101033.59
2023-05-25T11:07:59.130Z,101038.19
2023-05-25T11:10:53.082Z,101040.38
2023-05-25T11:13:32.051Z,101034.06
2023-05-25T11:16:09.326Z,101041.22
2023-05-25T11:18:41.383Z,101034.88
2023-05-25T11:21:16.795Z,101027.00
2023-05-25T11:24:04.378Z,101028.06
2023-05-25T11:26:33.625Z,101026.50
2023-05-25T11:29:02.109Z,101031.59
2023-05-25T11:31:36.435Z,101031.31
2023-05-25T11:34:06.262Z,101028.75
2023-05-25T11:36:36.921Z,101032.75
2023-05-25T11:39:11.665Z,101020.03
2023-05-25T11:41:52.611Z,101017.53
2023-05-25T11:44:30.075Z,101015.88
2023-05-25T11:47:01.623Z,101010.63
2023-05-25T11:49:28.519Z,101013.81
2023-05-25T11:51:57.072Z,101010.31
2023-05-25T11:54:28.800Z,101008.25
2023-05-25T11:56:59.371Z,101009.81
2023-05-25T11:59:29.799Z,101008.56
2023-05-25T12:01:59.601Z,101000.03
2023-05-25T12:04:26.918Z,100992.34
2023-05-25T12:07:01.404Z,100992.09
2023-05-25T12:09:28.065Z,100990.16
2023-05-25T12:11:54.830Z,100984.81
2023-05-25T12:14:21.688Z,100985.38
2023-05-25T12:16:48.503Z,100989.88
2023-05-25T12:19:16.952Z,100980.25
2023-05-25T12:21:43.823Z,100987.63
2023-05-25T12:24:14.504Z,100980.25
2023-05-25T12:26:49.433Z,100984.78
2023-05-25T12:29:16.487Z,100978.34
2023-05-25T12:31:43.131Z,100975.19
2023-05-25T12:34:15.322Z,100971.47
2023-05-25T12:36:46.458Z,100966.94
2023-05-25T12:39:14.655Z,100980.00
2023-05-25T12:41:54.225Z,100970.97
2023-05-25T12:44:37.562Z,100970.28
2023-05-25T12:47:19.931Z,100973.75
2023-05-25T12:49:51.337Z,100972.88
2023-05-25T12:52:36.829Z,100962.69
2023-05-25T12:55:29.073Z,100965.38
2023-05-25T12:58:01.440Z,100954.38
2023-05-25T13:00:36.085Z,100964.88
2023-05-25T13:03:03.645Z,100956.78
2023-05-25T13:05:36.936Z,100962.19
2023-05-25T13:08:05.335Z,100952.88
2023-05-25T13:10:33.043Z,100957.09
2023-05-25T13:13:00.702Z,100957.13
2023-05-25T13:15:27.649Z,100953.75
2023-05-25T13:17:56.407Z,100951.41
2023-05-25T13:20:25.535Z,100956.28
2023-05-25T13:22:53.583Z,100944.53
2023-05-25T13:25:22.395Z,100941.38
2023-05-25T13:27:51.057Z,100945.03
2023-05-25T13:30:17.980Z,100937.09
2023-05-25T13:32:45.018Z,100945.56
2023-05-25T13:35:18.626Z,100943.38
2023-05-25T13:37:48.027Z,100943.66
2023-05-25T13:40:14.916Z,100941.78
2023-05-25T13:42:41.498Z,100943.03
2023-05-25T13:45:08.792Z,100942.75
2023-05-25T13:47:35.517Z,100944.69
2023-05-25T13:50:02.275Z,100942.50
2023-05-25T13:52:28.854Z,100931.31
2023-05-25T13:54:55.488Z,100927.84
2023-05-25T13:57:22.620Z,100933.09
2023-05-25T13:59:49.435Z,100931.19
2023-05-25T14:02:16.551Z,100926.31
2023-05-25T14:04:43.189Z,100927.94
2023-05-25T14:07:09.778Z,100929.19
2023-05-25T14:09:36.619Z,100922.41
2023-05-25T14:12:03.400Z,100927.19
2023-05-25T14:14:32.458Z,100921.41
2023-05-25T14:17:00.261Z,100909.88
2023-05-25T14:19:27.122Z,100915.03
2023-05-25T14:22:11.180Z,100903.81
2023-05-25T14:24:38.924Z,100905.53
2023-05-25T14:27:07.214Z,100894.94
2023-05-25T14:29:34.282Z,100901.13
2023-05-25T14:32:01.410Z,100907.25
2023-05-25T14:34:28.646Z,100898.25
2023-05-25T14:36:55.392Z,100901.94
2023-05-25T14:39:22.022Z,100902.38
2023-05-25T14:41:48.611Z,100900.25
2023-05-25T14:44:15.354Z,100900.97
2023-05-25T14:46:41.995Z,100902.09
2023-05-25T14:49:08.750Z,100901.72
2023-05-25T14:51:35.871Z,100893.19
2023-05-25T14:54:05.664Z,100895.34
2023-05-25T14:56:32.442Z,100887.63
2023-05-25T14:58:58.962Z,100892.47
2023-05-25T15:01:25.778Z,100894.81
2023-05-25T15:03:52.641Z,100893.53
2023-05-25T15:06:19.604Z,100889.75
2023-05-25T15:08:46.413Z,100895.41
2023-05-25T15:11:13.059Z,100896.06
2023-05-25T15:13:40.950Z,100894.78
2023-05-25T15:16:11.302Z,100893.72
2023-05-25T15:18:37.912Z,100889.31
2023-05-25T15:21:04.606Z,100889.50
2023-05-25T15:23:32.167Z,100892.63
2023-05-25T15:26:03.181Z,100883.41
2023-05-25T15:28:35.652Z,100890.56
2023-05-25T15:31:03.427Z,100890.78
2023-05-25T15:33:48.360Z,100883.44
2023-05-25T15:36:18.512Z,100889.28
2023-05-25T15:38:48.928Z,100886.78
2023-05-25T15:41:18.872Z,100883.22
2023-05-25T15:43:52.574Z,100889.72
2023-05-25T15:46:19.487Z,100892.88
2023-05-25T15:48:46.061Z,100879.22
2023-05-25T15:51:12.718Z,100881.31
2023-05-25T15:53:39.247Z,100883.44
2023-05-25T15:56:05.944Z,100878.59
2023-05-25T15:58:34.517Z,100876.50
2023-05-25T16:01:01.565Z,100884.91
2023-05-25T16:03:28.634Z,100878.81
2023-05-25T16:05:55.800Z,100879.50
2023-05-25T16:08:22.576Z,100882.63
2023-05-25T16:10:49.395Z,100886.84
2023-05-25T16:13:16.220Z,100881.34
2023-05-25T16:15:42.989Z,100887.19
2023-05-25T16:18:09.702Z,100885.91
2023-05-25T16:20:36.633Z,100882.91
2023-05-25T16:23:03.328Z,100881.34
2023-05-25T16:25:29.966Z,100881.88
2023-05-25T16:27:56.642Z,100879.59
2023-05-25T16:30:23.762Z,100878.47
2023-05-25T16:32:50.687Z,100880.69
2023-05-25T16:35:17.343Z,100874.78
2023-05-25T16:37:44.758Z,100887.88
2023-05-25T16:40:11.612Z,100879.19
2023-05-25T16:42:38.199Z,100882.94
2023-05-25T16:45:05.376Z,100874.75
2023-05-25T16:47:31.921Z,100878.25
2023-05-25T16:49:58.554Z,100873.47
2023-05-25T16:52:25.085Z,100869.22
2023-05-25T16:54:51.588Z,100873.66
2023-05-25T16:57:18.280Z,100872.31
2023-05-25T16:59:45.639Z,100882.78
2023-05-25T17:02:12.245Z,100873.09
2023-05-25T17:04:38.870Z,100890.38
2023-05-25T17:07:06.341Z,100885.19
2023-05-25T17:09:33.181Z,100881.00
2023-05-25T17:12:01.648Z,100892.59
2023-05-25T17:14:28.310Z,100890.44
2023-05-25T17:16:54.996Z,100892.28
2023-05-25T17:19:24.756Z,100881.94
2023-05-25T17:29:25.879Z,100887.00
2023-05-25T17:31:52.416Z,100893.31
2023-05-25T17:34:18.934Z,100886.16
2023-05-25T17:36:45.365Z,100893.13
2023-05-25T17:39:11.851Z,100894.56
2023-05-25T17:41:38.328Z,100897.69
2023-05-25T17:44:04.812Z,100887.25
2023-05-25T17:46:31.358Z,100892.88
2023-05-25T17:48:57.968Z,100899.09
2023-05-25T17:51:24.371Z,100891.03
2023-05-25T17:53:50.968Z,100896.25
2023-05-25T17:56:17.373Z,100897.06
2023-05-25T17:58:47.317Z,100905.91
2023-05-25T18:01:15.142Z,100904.94
2023-05-25T18:03:42.093Z,100904.75
2023-05-25T18:06:08.570Z,100911.91
2023-05-25T18:08:35.034Z,100905.78
2023-05-25T18:11:01.602Z,100899.56
2023-05-25T18:13:28.085Z,100912.91
2023-05-25T18:15:54.526Z,100912.00
2023-05-25T18:18:23.147Z,100916.44
2023-05-25T18:20:49.625Z,100915.53
2023-05-25T18:23:16.317Z,100914.59
2023-05-25T18:25:42.804Z,100926.22
2023-05-25T18:28:09.449Z,100920.81
2023-05-25T18:30:35.845Z,100924.38
2023-05-25T18:33:03.408Z,100928.91
2023-05-25T18:35:29.850Z,100927.88
2023-05-25T18:37:56.364Z,100936.75
2023-05-25T18:40:23.197Z,100931.41
2023-05-25T18:42:50.776Z,100939.47
2023-05-25T18:45:17.218Z,100934.13
2023-05-25T18:47:44.107Z,100937.78
2023-05-25T18:50:11.841Z,100943.97
2023-05-25T18:52:38.606Z,100948.38
2023-05-25T18:55:06.231Z,100950.16
2023-05-25T18:57:32.984Z,100946.47
2023-05-25T18:59:59.522Z,100950.84
2023-05-25T19:02:26.403Z,100944.50
2023-05-25T19:04:53.128Z,100962.09
2023-05-25T19:07:19.581Z,100956.59
2023-05-25T19:09:47.960Z,100956.56
2023-05-25T19:12:15.411Z,100967.22
2023-05-25T19:14:42.056Z,100960.00
2023-05-25T19:17:08.740Z,100962.59
2023-05-25T19:19:35.236Z,100962.53
2023-05-25T19:22:01.641Z,100968.66
2023-05-25T19:24:28.062Z,100965.91
2023-05-25T19:26:54.550Z,100963.78
2023-05-25T19:29:21.148Z,100971.50
2023-05-25T19:31:47.551Z,100967.66
2023-05-25T19:34:14.156Z,100970.97
2023-05-25T19:36:40.653Z,100974.19
2023-05-25T19:39:07.197Z,100981.00
2023-05-25T19:41:33.619Z,100986.00
2023-05-25T19:44:00.161Z,100987.59
2023-05-25T19:46:26.666Z,100997.91
2023-05-25T19:48:53.377Z,100998.56
2023-05-25T20:01:52.697Z,101001.78
2023-05-25T20:04:19.206Z,101004.47
2023-05-25T20:06:45.917Z,101006.16
2023-05-25T20:09:13.987Z,101005.88
2023-05-25T20:11:41.539Z,101009.91
2023-05-25T20:14:08.014Z,101006.78
2023-05-25T20:16:34.728Z,101010.66
2023-05-25T20:19:01.973Z,101008.38
2023-05-25T20:21:28.908Z,101014.97
2023-05-25T20:23:56.763Z,101011.84
2023-05-25T20:26:23.317Z,101012.22
2023-05-25T20:28:49.698Z,101005.47
2023-05-25T20:31:16.438Z,101005.00
2023-05-25T20:33:43.169Z,101012.41
2023-05-25T20:36:09.920Z,101013.66
2023-05-25T20:41:36.419Z,101013.66
2023-05-25T20:44:06.368Z,101021.16
2023-05-25T20:46:34.130Z,101016.31
2023-05-25T20:49:01.036Z,101023.78
2023-05-25T20:51:27.558Z,101026.06
2023-05-25T20:53:54.245Z,101028.22
2023-05-25T20:56:21.535Z,101028.53
2023-05-25T20:58:48.158Z,101021.91
2023-05-25T21:01:15.655Z,101017.88
2023-05-25T21:03:42.338Z,101019.88
2023-05-25T21:06:09.006Z,101029.88
2023-05-25T21:08:35.613Z,101020.50
2023-05-25T21:11:02.535Z,101027.84
2023-05-25T21:13:29.086Z,101027.25
2023-05-25T21:15:55.859Z,101026.75
2023-05-25T21:18:22.487Z,101028.84
2023-05-25T21:20:49.226Z,101026.50
2023-05-25T21:23:15.761Z,101032.16
2023-05-25T21:25:42.375Z,101031.59
2023-05-25T21:28:10.346Z,101023.13
2023-05-25T21:30:36.836Z,101030.56
2023-05-25T21:33:03.450Z,101036.19
2023-05-25T21:35:29.883Z,101033.81
2023-05-25T21:37:56.510Z,101035.00
2023-05-25T21:40:22.973Z,101037.13
2023-05-25T21:42:51.249Z,101037.44
2023-05-25T21:45:17.907Z,101035.09
2023-05-25T21:47:44.500Z,101044.06
2023-05-25T21:50:11.088Z,101046.13
2023-05-25T21:52:37.729Z,101049.88
2023-05-25T21:55:04.794Z,101043.03
2023-05-25T21:57:31.288Z,101046.78
2023-05-25T21:59:57.728Z,101050.53
2023-05-25T22:02:24.327Z,101052.38
2023-05-25T22:04:51.038Z,101057.00
2023-05-25T22:07:17.485Z,101065.97
2023-05-25T22:09:44.044Z,101061.75
2023-05-25T22:12:12.734Z,101065.50
2023-05-25T22:14:39.399Z,101064.88
2023-05-25T22:17:06.151Z,101063.31
2023-05-25T22:19:32.784Z,101073.31
2023-05-25T22:21:59.359Z,101075.41
2023-05-25T22:24:25.919Z,101079.22
2023-05-25T22:26:52.475Z,101075.94
2023-05-25T22:29:19.037Z,101080.63
2023-05-25T22:31:45.946Z,101079.97
2023-05-25T22:34:12.497Z,101081.06
2023-05-25T22:36:38.993Z,101071.66
2023-05-25T22:39:05.579Z,101068.34
2023-05-25T22:41:32.098Z,101062.38
2023-05-25T22:43:58.703Z,101056.44
2023-05-25T22:46:25.259Z,101068.09
2023-05-25T22:48:51.954Z,101063.13
2023-05-25T22:51:18.535Z,101063.38
2023-05-25T22:53:45.032Z,101061.03
2023-05-25T22:56:11.711Z,101068.25
2023-05-25T22:58:38.596Z,101072.97
2023-05-25T23:01:05.402Z,101069.63
2023-05-25T23:03:32.133Z,101063.63
2023-05-25T23:05:58.808Z,101059.41
2023-05-25T23:08:25.521Z,101065.72
2023-05-25T23:10:52.063Z,101066.78
2023-05-25T23:13:19.274Z,101064.28
2023-05-25T23:15:47.582Z,101066.22
2023-05-25T23:18:14.361Z,101076.91
2023-05-25T23:20:41.077Z,101067.34
2023-05-25T23:23:07.748Z,101067.41
2023-05-25T23:25:34.345Z,101069.34
2023-05-25T23:28:00.851Z,101065.03
2023-05-25T23:30:27.460Z,101058.16
2023-05-25T23:32:54.095Z,101063.63
2023-05-25T23:35:22.390Z,101054.94
2023-05-25T23:37:50.164Z,101059.47
2023-05-25T23:40:16.647Z,101064.94
2023-05-25T23:42:43.899Z,101059.81
2023-05-25T23:45:10.809Z,101065.16
2023-05-25T23:47:37.336Z,101062.66
2023-05-25T23:50:04.191Z,101059.31
2023-05-25T23:52:30.914Z,101062.94
2023-05-25T23:54:57.447Z,101068.34
2023-05-25T23:57:23.955Z,101066.72
2023-05-25T23:59:50.660Z,101069.47
